Time,TemperatureF,DewpointF,PressureIn,WindDirection,WindDirectionDegrees,WindSpeedMPH,WindSpeedGustMPH,Humidity,HourlyPrecipIn,Conditions,Clouds,dailyrainin,SoftwareType,DateUTC
2013-03-01 00:00:00,30.6,22.0,29.72,North,-999,-999.0,0.0,70,0.00,,---,0.00,VWS V14.01,2013-03-01 05:00:00,
2013-03-01 00:01:00,30.6,22.0,29.72,North,-999,-999.0,0.0,70,0.00,,---,0.00,VWS V14.01,2013-03-01 05:01:00,
2013-03-01 00:03:00,30.6,22.0,29.72,North,-999,-999.0,0.0,70,0.00,,---,0.00,VWS V14.01,2013-03-01 05:03:00,
2013-03-01 00:07:00,30.6,22.0,29.72,North,-999,-999.0,0.0,70,0.00,,---,0.00,VWS V14.01,2013-03-01 05:07:00,
2013-03-01 00:12:00,30.4,21.8,29.72,North,-999,-999.0,0.0,70,0.00,,---,0.00,VWS V14.01,2013-03-01 05:12:00,
2013-03-01 00:17:00,30.2,21.9,29.72,North,-999,-999.0,0.0,71,0.00,,---,0.00,VWS V14.01,2013-03-01 05:17:00,
2013-03-01 00:23:00,30.1,21.9,29.72,North,-999,-999.0,0.0,71,0.00,,---,0.00,VWS V14.01,2013-03-01 05:23:00,
2013-03-01 00:28:00,29.9,21.7,29.72,North,-999,-999.0,0.0,71,0.00,,---,0.00,VWS V14.01,2013-03-01 05:28:00,
2013-03-01 00:33:00,29.9,22.0,29.72,North,-999,-999.0,0.0,72,0.00,,---,0.00,VWS V14.01,2013-03-01 05:33:00,
2013-03-01 00:38:00,29.9,22.3,29.72,North,-999,-999.0,0.0,73,0.00,,---,0.00,VWS V14.01,2013-03-01 05:38:00,
2013-03-01 00:43:00,29.7,22.1,29.72,North,-999,-999.0,0.0,73,0.00,,---,0.00,VWS V14.01,2013-03-01 05:43:00,
2013-03-01 00:48:00,29.7,22.1,29.72,North,-999,-999.0,0.0,73,0.00,,---,0.00,VWS V14.01,2013-03-01 05:48:00,
2013-03-01 00:53:00,29.7,22.1,29.72,North,-999,-999.0,0.0,73,0.00,,---,0.00,VWS V14.01,2013-03-01 05:53:00,
2013-03-01 00:58:00,29.5,21.9,29.72,North,-999,-999.0,0.0,73,0.00,,---,0.00,VWS V14.01,2013-03-01 05:58:00,
2013-03-01 01:03:00,29.3,21.7,29.72,North,-999,-999.0,0.0,73,0.00,,---,0.00,VWS V14.01,2013-03-01 06:03:00,
2013-03-01 01:09:00,29.3,21.7,29.72,North,-999,-999.0,0.0,73,0.00,,---,0.00,VWS V14.01,2013-03-01 06:09:00,
2013-03-01 01:14:00,29.2,22.0,29.72,North,-999,-999.0,0.0,74,0.00,,---,0.00,VWS V14.01,2013-03-01 06:14:00,
2013-03-01 01:19:00,29.2,22.0,29.72,North,-999,-999.0,0.0,74,0.00,,---,0.00,VWS V14.01,2013-03-01 06:19:00,
2013-03-01 01:24:00,29.0,21.8,29.72,North,-999,-999.0,0.0,74,0.00,,---,0.00,VWS V14.01,2013-03-01 06:24:00,
2013-03-01 01:29:00,28.8,21.6,29.72,North,-999,-999.0,0.0,74,0.00,,---,0.00,VWS V14.01,2013-03-01 06:29:00,
2013-03-01 01:34:00,28.8,21.9,29.72,North,-999,-999.0,0.0,75,0.00,,---,0.00,VWS V14.01,2013-03-01 06:34:00,
2013-03-01 01:39:00,28.6,22.0,29.72,North,-999,-999.0,0.0,76,0.00,,---,0.00,VWS V14.01,2013-03-01 06:39:00,
2013-03-01 01:44:00,28.6,21.7,29.72,North,-999,-999.0,0.0,75,0.00,,---,0.00,VWS V14.01,2013-03-01 06:44:00,
2013-03-01 01:49:00,28.6,22.0,29.72,North,-999,-999.0,0.0,76,0.00,,---,0.00,VWS V14.01,2013-03-01 06:49:00,
2013-03-01 01:54:00,28.4,21.8,29.72,North,-999,-999.0,0.0,76,0.00,,---,0.00,VWS V14.01,2013-03-01 06:54:00,
2013-03-01 01:59:00,28.4,21.8,29.72,North,-999,-999.0,0.0,76,0.00,,---,0.00,VWS V14.01,2013-03-01 06:59:00,
2013-03-01 02:05:00,28.4,21.8,29.72,North,-999,-999.0,0.0,76,0.00,,---,0.00,VWS V14.01,2013-03-01 07:05:00,
2013-03-01 02:10:00,28.4,21.8,29.72,North,-999,-999.0,0.0,76,0.00,,---,0.00,VWS V14.01,2013-03-01 07:10:00,
2013-03-01 02:15:00,28.4,21.5,29.72,North,-999,-999.0,0.0,75,0.00,,---,0.00,VWS V14.01,2013-03-01 07:15:00,
2013-03-01 02:20:00,28.4,21.8,29.72,North,-999,-999.0,0.0,76,0.00,,---,0.00,VWS V14.01,2013-03-01 07:20:00,
2013-03-01 02:25:00,28.3,21.7,29.72,North,-999,-999.0,0.0,76,0.00,,---,0.00,VWS V14.01,2013-03-01 07:25:00,
2013-03-01 02:30:00,28.3,21.7,29.71,North,-999,-999.0,0.0,76,0.00,,---,0.00,VWS V14.01,2013-03-01 07:30:00,
2013-03-01 02:35:00,28.3,21.7,29.71,North,-999,-999.0,0.0,76,0.00,,---,0.00,VWS V14.01,2013-03-01 07:35:00,
2013-03-01 02:40:00,28.1,21.5,29.71,North,-999,-999.0,0.0,76,0.00,,---,0.00,VWS V14.01,2013-03-01 07:40:00,
2013-03-01 02:45:00,28.1,21.5,29.71,North,-999,-999.0,0.0,76,0.00,,---,0.00,VWS V14.01,2013-03-01 07:45:00,
2013-03-01 02:50:00,28.1,21.5,29.71,North,-999,-999.0,0.0,76,0.00,,---,0.00,VWS V14.01,2013-03-01 07:50:00,
2013-03-01 02:55:00,28.1,21.8,29.71,North,-999,-999.0,0.0,77,0.00,,---,0.00,VWS V14.01,2013-03-01 07:55:00,
2013-03-01 03:00:00,27.9,21.6,29.71,North,-999,-999.0,0.0,77,0.00,,---,0.00,VWS V14.01,2013-03-01 08:00:00,
2013-03-01 03:02:00,27.9,21.6,29.71,North,-999,-999.0,0.0,77,0.00,,---,0.00,VWS V14.01,2013-03-01 08:02:00,
2013-03-01 03:08:00,27.9,21.6,29.71,North,-999,-999.0,0.0,77,0.00,,---,0.00,VWS V14.01,2013-03-01 08:08:00,
2013-03-01 04:00:00,28.6,22.3,29.71,North,-999,-999.0,0.0,77,0.00,,---,0.00,VWS V14.01,2013-03-01 09:00:00,
2013-03-01 04:06:00,28.6,22.3,29.71,North,-999,-999.0,0.0,77,0.00,,---,0.00,VWS V14.01,2013-03-01 09:06:00,
2013-03-01 05:00:00,27.7,21.8,29.73,North,-999,-999.0,0.0,78,0.00,,---,0.00,VWS V14.01,2013-03-01 10:00:00,
2013-03-01 05:06:00,27.7,21.8,29.73,North,-999,-999.0,0.0,78,0.00,,---,0.00,VWS V14.01,2013-03-01 10:06:00,
2013-03-01 10:00:00,51.5,30.9,29.76,North,-999,-999.0,0.0,45,0.00,,---,0.00,VWS V14.01,2013-03-01 15:00:00,
2013-03-01 10:06:00,51.5,30.9,29.76,North,-999,-999.0,0.0,45,0.00,,---,0.00,VWS V14.01,2013-03-01 15:06:00,
2013-03-01 13:00:00,59.8,31.4,29.72,North,-999,-999.0,0.0,34,0.00,,---,0.00,VWS V14.01,2013-03-01 18:00:00,
2013-03-01 13:06:00,59.8,31.4,29.72,North,-999,-999.0,0.0,34,0.00,,---,0.00,VWS V14.01,2013-03-01 18:06:00,
2013-03-01 14:00:00,62.1,31.1,29.69,North,-999,-999.0,0.0,31,0.00,,---,0.00,VWS V14.01,2013-03-01 19:00:00,
2013-03-01 14:05:00,62.1,31.1,29.69,North,-999,-999.0,0.0,31,0.00,,---,0.00,VWS V14.01,2013-03-01 19:05:00,
2013-03-01 15:00:00,56.3,29.7,29.67,North,-999,-999.0,0.0,36,0.00,,---,0.00,VWS V14.01,2013-03-01 20:00:00,
2013-03-01 15:05:00,56.3,29.7,29.67,North,-999,-999.0,0.0,36,0.00,,---,0.00,VWS V14.01,2013-03-01 20:05:00,
2013-03-01 16:00:00,60.8,30.8,29.67,North,-999,-999.0,0.0,32,0.00,,---,0.00,VWS V14.01,2013-03-01 21:00:00,
2013-03-01 16:05:00,60.8,30.8,29.67,North,-999,-999.0,0.0,32,0.00,,---,0.00,VWS V14.01,2013-03-01 21:05:00,
2013-03-01 16:59:00,52.7,29.7,29.67,North,-999,-999.0,0.0,41,0.00,,---,0.00,VWS V14.01,2013-03-01 21:59:00,
2013-03-01 17:05:00,52.6,30.2,29.67,North,-999,-999.0,0.0,42,0.00,,---,0.00,VWS V14.01,2013-03-01 22:05:00,
2013-03-01 17:10:00,52.2,30.4,29.67,North,-999,-999.0,0.0,43,0.00,,---,0.00,VWS V14.01,2013-03-01 22:10:00,
2013-03-01 17:16:00,51.8,29.5,29.68,North,-999,-999.0,0.0,42,0.00,,---,0.00,VWS V14.01,2013-03-01 22:16:00,
2013-03-01 17:21:00,51.5,29.8,29.68,North,-999,-999.0,0.0,43,0.00,,---,0.00,VWS V14.01,2013-03-01 22:21:00,
2013-03-01 17:26:00,51.3,29.6,29.68,North,-999,-999.0,0.0,43,0.00,,---,0.00,VWS V14.01,2013-03-01 22:26:00,
2013-03-01 17:31:00,51.1,29.4,29.68,North,-999,-999.0,0.0,43,0.00,,---,0.00,VWS V14.01,2013-03-01 22:31:00,
2013-03-01 17:36:00,50.9,29.8,29.68,North,-999,-999.0,0.0,44,0.00,,---,0.00,VWS V14.01,2013-03-01 22:36:00,
2013-03-01 17:41:00,50.6,29.5,29.68,North,-999,-999.0,0.0,44,0.00,,---,0.00,VWS V14.01,2013-03-01 22:41:00,
2013-03-01 17:46:00,50.4,29.9,29.68,North,-999,-999.0,0.0,45,0.00,,---,0.00,VWS V14.01,2013-03-01 22:46:00,
2013-03-01 17:51:00,49.9,29.4,29.68,North,-999,-999.0,0.0,45,0.00,,---,0.00,VWS V14.01,2013-03-01 22:51:00,
2013-03-01 17:56:00,49.7,29.2,29.68,North,-999,-999.0,0.0,45,0.00,,---,0.00,VWS V14.01,2013-03-01 22:56:00,
2013-03-01 18:02:00,49.3,29.4,29.69,North,-999,-999.0,0.0,46,0.00,,---,0.00,VWS V14.01,2013-03-01 23:02:00,
2013-03-01 18:07:00,49.1,29.2,29.69,North,-999,-999.0,0.0,46,0.00,,---,0.00,VWS V14.01,2013-03-01 23:07:00,
2013-03-01 18:12:00,49.0,29.7,29.69,North,-999,-999.0,0.0,47,0.00,,---,0.00,VWS V14.01,2013-03-01 23:12:00,
2013-03-01 18:17:00,48.8,30.0,29.69,North,-999,-999.0,0.0,48,0.00,,---,0.00,VWS V14.01,2013-03-01 23:17:00,
2013-03-01 18:22:00,48.6,29.8,29.69,North,-999,-999.0,0.0,48,0.00,,---,0.00,VWS V14.01,2013-03-01 23:22:00,
2013-03-01 18:27:00,48.2,29.5,29.69,North,-999,-999.0,0.0,48,0.00,,---,0.00,VWS V14.01,2013-03-01 23:27:00,
2013-03-01 18:32:00,47.9,29.2,29.69,North,-999,-999.0,0.0,48,0.00,,---,0.00,VWS V14.01,2013-03-01 23:32:00,
2013-03-01 18:38:00,47.9,29.2,29.69,North,-999,-999.0,0.0,48,0.00,,---,0.00,VWS V14.01,2013-03-01 23:38:00,
2013-03-01 18:44:00,47.9,29.2,29.69,North,-999,-999.0,0.0,48,0.00,,---,0.00,VWS V14.01,2013-03-01 23:44:00,
2013-03-01 18:50:00,47.3,29.1,29.70,North,-999,-999.0,0.0,49,0.00,,---,0.00,VWS V14.01,2013-03-01 23:50:00,
2013-03-01 18:55:00,47.2,29.5,29.70,North,-999,-999.0,0.0,50,0.00,,---,0.00,VWS V14.01,2013-03-01 23:55:00,
2013-03-01 19:00:00,47.2,29.5,29.70,North,-999,-999.0,0.0,50,0.00,,---,0.00,VWS V14.01,2013-03-02 00:00:00,
2013-03-01 19:06:00,46.8,29.2,29.70,North,-999,-999.0,0.0,50,0.00,,---,0.00,VWS V14.01,2013-03-02 00:06:00,
2013-03-01 19:11:00,46.6,29.0,29.71,North,-999,-999.0,0.0,50,0.00,,---,0.00,VWS V14.01,2013-03-02 00:11:00,
2013-03-01 19:16:00,46.4,28.8,29.71,North,-999,-999.0,0.0,50,0.00,,---,0.00,VWS V14.01,2013-03-02 00:16:00,
2013-03-01 19:21:00,46.4,28.8,29.71,North,-999,-999.0,0.0,50,0.00,,---,0.00,VWS V14.01,2013-03-02 00:21:00,
2013-03-01 19:26:00,46.3,28.7,29.71,North,-999,-999.0,0.0,50,0.00,,---,0.00,VWS V14.01,2013-03-02 00:26:00,
2013-03-01 19:31:00,46.3,28.7,29.71,North,-999,-999.0,0.0,50,0.00,,---,0.00,VWS V14.01,2013-03-02 00:31:00,
2013-03-01 19:36:00,46.1,28.5,29.72,North,-999,-999.0,0.0,50,0.00,,---,0.00,VWS V14.01,2013-03-02 00:36:00,
2013-03-01 19:41:00,46.1,28.5,29.72,North,-999,-999.0,0.0,50,0.00,,---,0.00,VWS V14.01,2013-03-02 00:41:00,
2013-03-01 19:46:00,46.1,28.5,29.72,North,-999,-999.0,0.0,50,0.00,,---,0.00,VWS V14.01,2013-03-02 00:46:00,
2013-03-01 19:51:00,46.1,28.0,29.72,North,-999,-999.0,0.0,49,0.00,,---,0.00,VWS V14.01,2013-03-02 00:51:00,
2013-03-01 19:56:00,45.9,28.3,29.72,North,-999,-999.0,0.0,50,0.00,,---,0.00,VWS V14.01,2013-03-02 00:56:00,
2013-03-01 20:02:00,45.9,28.3,29.72,North,-999,-999.0,0.0,50,0.00,,---,0.00,VWS V14.01,2013-03-02 01:02:00,
2013-03-01 20:07:00,45.7,28.1,29.72,North,-999,-999.0,0.0,50,0.00,,---,0.00,VWS V14.01,2013-03-02 01:07:00,
2013-03-01 20:12:00,45.7,28.6,29.73,North,-999,-999.0,0.0,51,0.00,,---,0.00,VWS V14.01,2013-03-02 01:12:00,
2013-03-01 20:17:00,45.7,28.6,29.72,North,-999,-999.0,0.0,51,0.00,,---,0.00,VWS V14.01,2013-03-02 01:17:00,
2013-03-01 20:22:00,45.5,28.4,29.73,North,-999,-999.0,0.0,51,0.00,,---,0.00,VWS V14.01,2013-03-02 01:22:00,
2013-03-01 20:27:00,45.4,28.8,29.72,North,-999,-999.0,0.0,52,0.00,,---,0.00,VWS V14.01,2013-03-02 01:27:00,
2013-03-01 20:32:00,45.4,28.8,29.72,North,-999,-999.0,0.0,52,0.00,,---,0.00,VWS V14.01,2013-03-02 01:32:00,
2013-03-01 20:37:00,45.2,28.6,29.72,North,-999,-999.0,0.0,52,0.00,,---,0.00,VWS V14.01,2013-03-02 01:37:00,
2013-03-01 20:42:00,45.0,28.5,29.73,North,-999,-999.0,0.0,52,0.00,,---,0.00,VWS V14.01,2013-03-02 01:42:00,
2013-03-01 20:47:00,45.0,28.5,29.73,North,-999,-999.0,0.0,52,0.00,,---,0.00,VWS V14.01,2013-03-02 01:47:00,
2013-03-01 20:52:00,45.0,28.5,29.73,North,-999,-999.0,0.0,52,0.00,,---,0.00,VWS V14.01,2013-03-02 01:52:00,
2013-03-01 20:57:00,44.8,28.3,29.73,North,-999,-999.0,0.0,52,0.00,,---,0.00,VWS V14.01,2013-03-02 01:57:00,
2013-03-01 21:03:00,44.8,28.7,29.73,North,-999,-999.0,0.0,53,0.00,,---,0.00,VWS V14.01,2013-03-02 02:03:00,
2013-03-01 21:08:00,44.6,28.5,29.73,North,-999,-999.0,0.0,53,0.00,,---,0.00,VWS V14.01,2013-03-02 02:08:00,
2013-03-01 21:13:00,44.6,28.5,29.73,North,-999,-999.0,0.0,53,0.00,,---,0.00,VWS V14.01,2013-03-02 02:13:00,
2013-03-01 21:18:00,44.5,28.5,29.73,North,-999,-999.0,0.0,53,0.00,,---,0.00,VWS V14.01,2013-03-02 02:18:00,
2013-03-01 21:23:00,44.5,28.5,29.73,North,-999,-999.0,0.0,53,0.00,,---,0.00,VWS V14.01,2013-03-02 02:23:00,
2013-03-01 21:28:00,44.5,28.5,29.73,North,-999,-999.0,0.0,53,0.00,,---,0.00,VWS V14.01,2013-03-02 02:28:00,
2013-03-01 21:33:00,44.3,28.3,29.74,North,-999,-999.0,0.0,53,0.00,,---,0.00,VWS V14.01,2013-03-02 02:33:00,
2013-03-01 21:38:00,44.3,28.3,29.74,North,-999,-999.0,0.0,53,0.00,,---,0.00,VWS V14.01,2013-03-02 02:38:00,
2013-03-01 21:43:00,44.3,28.3,29.74,North,-999,-999.0,0.0,53,0.00,,---,0.00,VWS V14.01,2013-03-02 02:43:00,
2013-03-01 21:49:00,44.3,28.3,29.74,North,-999,-999.0,0.0,53,0.00,,---,0.00,VWS V14.01,2013-03-02 02:49:00,
2013-03-01 21:54:00,44.3,28.3,29.74,North,-999,-999.0,0.0,53,0.00,,---,0.00,VWS V14.01,2013-03-02 02:54:00,
2013-03-01 21:59:00,44.3,28.3,29.74,North,-999,-999.0,0.0,53,0.00,,---,0.00,VWS V14.01,2013-03-02 02:59:00,
2013-03-01 22:05:00,44.1,28.1,29.74,North,-999,-999.0,0.0,53,0.00,,---,0.00,VWS V14.01,2013-03-02 03:05:00,
2013-03-01 22:10:00,44.1,28.5,29.74,North,-999,-999.0,0.0,54,0.00,,---,0.00,VWS V14.01,2013-03-02 03:10:00,
2013-03-01 22:15:00,43.9,28.4,29.74,North,-999,-999.0,0.0,54,0.00,,---,0.00,VWS V14.01,2013-03-02 03:15:00,
2013-03-01 22:20:00,43.9,28.4,29.73,North,-999,-999.0,0.0,54,0.00,,---,0.00,VWS V14.01,2013-03-02 03:20:00,
2013-03-01 22:25:00,43.7,28.2,29.74,North,-999,-999.0,0.0,54,0.00,,---,0.00,VWS V14.01,2013-03-02 03:25:00,
2013-03-01 22:30:00,43.7,28.2,29.73,North,-999,-999.0,0.0,54,0.00,,---,0.00,VWS V14.01,2013-03-02 03:30:00,
2013-03-01 22:35:00,43.7,28.2,29.73,North,-999,-999.0,0.0,54,0.00,,---,0.00,VWS V14.01,2013-03-02 03:35:00,
2013-03-01 22:40:00,43.6,28.1,29.73,North,-999,-999.0,0.0,54,0.00,,---,0.00,VWS V14.01,2013-03-02 03:40:00,
2013-03-01 22:45:00,43.6,28.1,29.73,North,-999,-999.0,0.0,54,0.00,,---,0.00,VWS V14.01,2013-03-02 03:45:00,
2013-03-01 22:50:00,43.6,28.1,29.73,North,-999,-999.0,0.0,54,0.00,,---,0.00,VWS V14.01,2013-03-02 03:50:00,
2013-03-01 22:55:00,43.6,28.1,29.72,North,-999,-999.0,0.0,54,0.00,,---,0.00,VWS V14.01,2013-03-02 03:55:00,
2013-03-01 23:01:00,43.6,28.1,29.73,North,-999,-999.0,0.0,54,0.00,,---,0.00,VWS V14.01,2013-03-02 04:01:00,
2013-03-01 23:06:00,43.6,28.1,29.73,North,-999,-999.0,0.0,54,0.00,,---,0.00,VWS V14.01,2013-03-02 04:06:00,
2013-03-01 23:11:00,43.6,28.1,29.73,North,-999,-999.0,0.0,54,0.00,,---,0.00,VWS V14.01,2013-03-02 04:11:00,
2013-03-01 23:16:00,43.4,27.9,29.73,North,-999,-999.0,0.0,54,0.00,,---,0.00,VWS V14.01,2013-03-02 04:16:00,
2013-03-01 23:21:00,43.4,27.9,29.73,North,-999,-999.0,0.0,54,0.00,,---,0.00,VWS V14.01,2013-03-02 04:21:00,
2013-03-01 23:26:00,43.4,27.9,29.72,North,-999,-999.0,0.0,54,0.00,,---,0.00,VWS V14.01,2013-03-02 04:26:00,
2013-03-01 23:31:00,43.4,27.9,29.72,North,-999,-999.0,0.0,54,0.00,,---,0.00,VWS V14.01,2013-03-02 04:31:00,
2013-03-01 23:36:00,43.4,27.9,29.72,North,-999,-999.0,0.0,54,0.00,,---,0.00,VWS V14.01,2013-03-02 04:36:00,
2013-03-01 23:41:00,43.2,28.1,29.72,North,-999,-999.0,0.0,55,0.00,,---,0.00,VWS V14.01,2013-03-02 04:41:00,
2013-03-01 23:46:00,43.2,28.1,29.72,North,-999,-999.0,0.0,55,0.00,,---,0.00,VWS V14.01,2013-03-02 04:46:00,
2013-03-01 23:51:00,43.0,28.4,29.72,North,-999,-999.0,0.0,56,0.00,,---,0.00,VWS V14.01,2013-03-02 04:51:00,
2013-03-01 23:56:00,42.8,28.2,29.72,North,-999,-999.0,0.0,56,0.00,,---,0.00,VWS V14.01,2013-03-02 04:56:00,